sensor_id;sensor_type;location;lat;lon;timestamp;P1;durP1;ratioP1;P2;durP2;ratioP2
48727;SDS011;34527;45.618;5.130;2023-04-24T00:00:54;4.13;;;1.73;;
48727;SDS011;34527;45.618;5.130;2023-04-24T00:03:24;1.65;;;1.45;;
48727;SDS011;34527;45.618;5.130;2023-04-24T00:05:50;5.28;;;2.08;;
48727;SDS011;34527;45.618;5.130;2023-04-24T00:08:16;3.25;;;1.42;;
48727;SDS011;34527;45.618;5.130;2023-04-24T00:10:42;4.40;;;1.70;;
48727;SDS011;34527;45.618;5.130;2023-04-24T00:13:08;3.53;;;1.60;;
48727;SDS011;34527;45.618;5.130;2023-04-24T00:15:34;3.33;;;1.50;;
48727;SDS011;34527;45.618;5.130;2023-04-24T00:17:59;1.92;;;1.45;;
48727;SDS011;34527;45.618;5.130;2023-04-24T00:20:26;2.47;;;1.50;;
48727;SDS011;34527;45.618;5.130;2023-04-24T00:22:54;1.70;;;1.30;;
48727;SDS011;34527;45.618;5.130;2023-04-24T00:25:20;3.83;;;1.70;;
48727;SDS011;34527;45.618;5.130;2023-04-24T00:27:45;2.88;;;1.75;;
48727;SDS011;34527;45.618;5.130;2023-04-24T00:30:11;3.17;;;1.58;;
48727;SDS011;34527;45.618;5.130;2023-04-24T00:32:36;4.85;;;1.75;;
48727;SDS011;34527;45.618;5.130;2023-04-24T00:35:02;3.85;;;1.60;;
48727;SDS011;34527;45.618;5.130;2023-04-24T00:37:28;7.53;;;1.90;;
48727;SDS011;34527;45.618;5.130;2023-04-24T00:39:53;2.65;;;1.67;;
48727;SDS011;34527;45.618;5.130;2023-04-24T00:42:20;2.05;;;1.58;;
48727;SDS011;34527;45.618;5.130;2023-04-24T00:44:45;3.47;;;1.50;;
48727;SDS011;34527;45.618;5.130;2023-04-24T00:47:11;3.20;;;1.58;;
48727;SDS011;34527;45.618;5.130;2023-04-24T00:49:38;2.63;;;1.67;;
48727;SDS011;34527;45.618;5.130;2023-04-24T00:52:03;3.13;;;1.67;;
48727;SDS011;34527;45.618;5.130;2023-04-24T00:54:32;7.05;;;1.77;;
48727;SDS011;34527;45.618;5.130;2023-04-24T00:56:58;3.42;;;1.85;;
48727;SDS011;34527;45.618;5.130;2023-04-24T00:59:24;3.80;;;1.67;;
48727;SDS011;34527;45.618;5.130;2023-04-24T01:01:49;3.22;;;1.42;;
48727;SDS011;34527;45.618;5.130;2023-04-24T01:04:16;2.50;;;1.45;;
48727;SDS011;34527;45.618;5.130;2023-04-24T01:06:43;2.63;;;1.27;;
48727;SDS011;34527;45.618;5.130;2023-04-24T01:09:10;2.88;;;1.48;;
48727;SDS011;34527;45.618;5.130;2023-04-24T01:11:37;3.83;;;1.40;;
48727;SDS011;34527;45.618;5.130;2023-04-24T01:14:03;2.70;;;1.58;;
48727;SDS011;34527;45.618;5.130;2023-04-24T01:16:29;3.28;;;1.42;;
48727;SDS011;34527;45.618;5.130;2023-04-24T01:18:54;1.67;;;1.23;;
48727;SDS011;34527;45.618;5.130;2023-04-24T01:21:20;2.33;;;1.35;;
48727;SDS011;34527;45.618;5.130;2023-04-24T01:23:46;2.08;;;1.33;;
48727;SDS011;34527;45.618;5.130;2023-04-24T01:26:13;2.13;;;1.60;;
48727;SDS011;34527;45.618;5.130;2023-04-24T01:28:40;2.33;;;1.55;;
48727;SDS011;34527;45.618;5.130;2023-04-24T01:31:06;1.77;;;1.30;;
48727;SDS011;34527;45.618;5.130;2023-04-24T01:33:32;7.68;;;1.42;;
48727;SDS011;34527;45.618;5.130;2023-04-24T01:35:58;3.78;;;1.63;;
48727;SDS011;34527;45.618;5.130;2023-04-24T01:38:23;1.70;;;1.20;;
48727;SDS011;34527;45.618;5.130;2023-04-24T01:40:49;5.57;;;1.40;;
48727;SDS011;34527;45.618;5.130;2023-04-24T01:43:16;2.58;;;1.60;;
48727;SDS011;34527;45.618;5.130;2023-04-24T01:45:41;2.97;;;1.42;;
48727;SDS011;34527;45.618;5.130;2023-04-24T01:48:07;5.10;;;1.50;;
48727;SDS011;34527;45.618;5.130;2023-04-24T01:50:33;4.25;;;1.48;;
48727;SDS011;34527;45.618;5.130;2023-04-24T01:52:58;3.05;;;1.50;;
48727;SDS011;34527;45.618;5.130;2023-04-24T01:55:24;1.92;;;1.58;;
48727;SDS011;34527;45.618;5.130;2023-04-24T01:57:51;5.68;;;1.40;;
48727;SDS011;34527;45.618;5.130;2023-04-24T02:00:19;3.95;;;1.55;;
48727;SDS011;34527;45.618;5.130;2023-04-24T02:02:44;2.63;;;1.38;;
48727;SDS011;34527;45.618;5.130;2023-04-24T02:05:11;4.05;;;1.50;;
48727;SDS011;34527;45.618;5.130;2023-04-24T02:07:37;5.40;;;1.73;;
48727;SDS011;34527;45.618;5.130;2023-04-24T02:10:03;5.07;;;1.58;;
48727;SDS011;34527;45.618;5.130;2023-04-24T02:12:29;4.57;;;1.25;;
48727;SDS011;34527;45.618;5.130;2023-04-24T02:14:55;3.30;;;1.52;;
48727;SDS011;34527;45.618;5.130;2023-04-24T02:17:20;1.80;;;1.27;;
48727;SDS011;34527;45.618;5.130;2023-04-24T02:19:46;5.88;;;1.42;;
48727;SDS011;34527;45.618;5.130;2023-04-24T02:22:12;4.82;;;1.40;;
48727;SDS011;34527;45.618;5.130;2023-04-24T02:24:37;6.43;;;1.50;;
48727;SDS011;34527;45.618;5.130;2023-04-24T02:27:03;2.78;;;1.33;;
48727;SDS011;34527;45.618;5.130;2023-04-24T02:29:29;5.47;;;1.52;;
48727;SDS011;34527;45.618;5.130;2023-04-24T02:31:55;4.45;;;1.48;;
48727;SDS011;34527;45.618;5.130;2023-04-24T02:34:21;2.50;;;1.60;;
48727;SDS011;34527;45.618;5.130;2023-04-24T02:36:48;3.22;;;1.60;;
48727;SDS011;34527;45.618;5.130;2023-04-24T02:39:14;5.45;;;1.70;;
48727;SDS011;34527;45.618;5.130;2023-04-24T02:41:41;4.82;;;2.40;;
48727;SDS011;34527;45.618;5.130;2023-04-24T02:44:07;2.22;;;1.52;;
48727;SDS011;34527;45.618;5.130;2023-04-24T02:46:33;2.97;;;1.38;;
48727;SDS011;34527;45.618;5.130;2023-04-24T02:48:58;4.93;;;1.42;;
48727;SDS011;34527;45.618;5.130;2023-04-24T02:51:24;4.38;;;2.03;;
48727;SDS011;34527;45.618;5.130;2023-04-24T02:53:50;9.02;;;3.58;;
48727;SDS011;34527;45.618;5.130;2023-04-24T02:56:15;2.45;;;1.58;;
48727;SDS011;34527;45.618;5.130;2023-04-24T02:58:41;2.45;;;1.63;;
48727;SDS011;34527;45.618;5.130;2023-04-24T03:01:07;2.42;;;1.50;;
48727;SDS011;34527;45.618;5.130;2023-04-24T03:03:35;3.63;;;1.77;;
48727;SDS011;34527;45.618;5.130;2023-04-24T03:06:01;3.45;;;1.70;;
48727;SDS011;34527;45.618;5.130;2023-04-24T03:08:26;4.03;;;1.67;;
48727;SDS011;34527;45.618;5.130;2023-04-24T03:10:52;2.75;;;1.48;;
48727;SDS011;34527;45.618;5.130;2023-04-24T03:13:18;6.85;;;1.38;;
48727;SDS011;34527;45.618;5.130;2023-04-24T03:15:43;5.28;;;1.70;;
48727;SDS011;34527;45.618;5.130;2023-04-24T03:18:10;3.20;;;1.42;;
48727;SDS011;34527;45.618;5.130;2023-04-24T03:20:35;6.22;;;1.63;;
48727;SDS011;34527;45.618;5.130;2023-04-24T03:23:02;3.22;;;1.70;;
48727;SDS011;34527;45.618;5.130;2023-04-24T03:25:28;2.70;;;1.60;;
48727;SDS011;34527;45.618;5.130;2023-04-24T03:27:53;6.57;;;1.70;;
48727;SDS011;34527;45.618;5.130;2023-04-24T03:30:19;5.22;;;1.75;;
48727;SDS011;34527;45.618;5.130;2023-04-24T03:32:45;2.65;;;1.77;;
48727;SDS011;34527;45.618;5.130;2023-04-24T03:35:11;4.97;;;1.60;;
48727;SDS011;34527;45.618;5.130;2023-04-24T03:37:36;4.32;;;1.77;;
48727;SDS011;34527;45.618;5.130;2023-04-24T03:40:02;5.80;;;1.70;;
48727;SDS011;34527;45.618;5.130;2023-04-24T03:42:28;2.83;;;1.52;;
48727;SDS011;34527;45.618;5.130;2023-04-24T03:44:54;3.40;;;1.67;;
48727;SDS011;34527;45.618;5.130;2023-04-24T03:47:19;2.90;;;2.08;;
48727;SDS011;34527;45.618;5.130;2023-04-24T03:49:45;3.50;;;1.50;;
48727;SDS011;34527;45.618;5.130;2023-04-24T03:52:10;4.53;;;1.77;;
48727;SDS011;34527;45.618;5.130;2023-04-24T03:54:36;3.97;;;1.90;;
48727;SDS011;34527;45.618;5.130;2023-04-24T03:57:01;4.93;;;2.00;;
48727;SDS011;34527;45.618;5.130;2023-04-24T03:59:28;3.33;;;1.70;;
48727;SDS011;34527;45.618;5.130;2023-04-24T04:01:53;6.32;;;1.80;;
48727;SDS011;34527;45.618;5.130;2023-04-24T04:04:19;5.75;;;1.80;;
48727;SDS011;34527;45.618;5.130;2023-04-24T04:06:45;3.78;;;1.50;;
48727;SDS011;34527;45.618;5.130;2023-04-24T04:09:11;3.20;;;1.98;;
48727;SDS011;34527;45.618;5.130;2023-04-24T04:11:37;5.10;;;2.08;;
48727;SDS011;34527;45.618;5.130;2023-04-24T04:14:03;2.65;;;1.80;;
48727;SDS011;34527;45.618;5.130;2023-04-24T04:16:28;4.25;;;2.40;;
48727;SDS011;34527;45.618;5.130;2023-04-24T04:18:54;6.35;;;1.90;;
48727;SDS011;34527;45.618;5.130;2023-04-24T04:21:20;3.45;;;1.90;;
48727;SDS011;34527;45.618;5.130;2023-04-24T04:23:46;5.90;;;1.95;;
48727;SDS011;34527;45.618;5.130;2023-04-24T04:26:12;3.67;;;1.95;;
48727;SDS011;34527;45.618;5.130;2023-04-24T04:28:38;3.28;;;1.90;;
48727;SDS011;34527;45.618;5.130;2023-04-24T04:31:04;3.58;;;1.77;;
48727;SDS011;34527;45.618;5.130;2023-04-24T04:33:30;6.57;;;2.38;;
48727;SDS011;34527;45.618;5.130;2023-04-24T04:35:56;4.57;;;2.28;;
48727;SDS011;34527;45.618;5.130;2023-04-24T04:38:21;4.82;;;2.50;;
48727;SDS011;34527;45.618;5.130;2023-04-24T04:40:48;5.60;;;2.50;;
48727;SDS011;34527;45.618;5.130;2023-04-24T04:43:13;4.18;;;2.70;;
48727;SDS011;34527;45.618;5.130;2023-04-24T04:45:42;4.68;;;2.42;;
48727;SDS011;34527;45.618;5.130;2023-04-24T04:48:08;7.43;;;2.30;;
48727;SDS011;34527;45.618;5.130;2023-04-24T04:50:37;7.65;;;2.40;;
48727;SDS011;34527;45.618;5.130;2023-04-24T04:53:02;6.35;;;2.65;;
48727;SDS011;34527;45.618;5.130;2023-04-24T04:55:28;4.22;;;2.00;;
48727;SDS011;34527;45.618;5.130;2023-04-24T04:57:53;5.85;;;2.40;;
48727;SDS011;34527;45.618;5.130;2023-04-24T05:00:21;4.28;;;2.00;;
48727;SDS011;34527;45.618;5.130;2023-04-24T05:02:46;5.88;;;2.30;;
48727;SDS011;34527;45.618;5.130;2023-04-24T05:05:12;3.80;;;1.73;;
48727;SDS011;34527;45.618;5.130;2023-04-24T05:07:38;2.58;;;1.70;;
48727;SDS011;34527;45.618;5.130;2023-04-24T05:10:03;4.22;;;1.70;;
48727;SDS011;34527;45.618;5.130;2023-04-24T05:12:29;6.07;;;2.03;;
48727;SDS011;34527;45.618;5.130;2023-04-24T05:14:55;3.72;;;1.95;;
48727;SDS011;34527;45.618;5.130;2023-04-24T05:17:20;4.55;;;2.10;;
48727;SDS011;34527;45.618;5.130;2023-04-24T05:19:46;3.85;;;1.80;;
48727;SDS011;34527;45.618;5.130;2023-04-24T05:22:13;4.90;;;1.92;;
48727;SDS011;34527;45.618;5.130;2023-04-24T05:24:38;2.92;;;1.98;;
48727;SDS011;34527;45.618;5.130;2023-04-24T05:27:04;5.88;;;2.20;;
48727;SDS011;34527;45.618;5.130;2023-04-24T05:29:31;5.93;;;2.33;;
48727;SDS011;34527;45.618;5.130;2023-04-24T05:31:58;4.53;;;2.53;;
48727;SDS011;34527;45.618;5.130;2023-04-24T05:34:24;4.65;;;2.22;;
48727;SDS011;34527;45.618;5.130;2023-04-24T05:36:50;4.30;;;2.22;;
48727;SDS011;34527;45.618;5.130;2023-04-24T05:39:16;5.38;;;2.42;;
48727;SDS011;34527;45.618;5.130;2023-04-24T05:41:42;11.98;;;4.68;;
48727;SDS011;34527;45.618;5.130;2023-04-24T05:44:08;14.85;;;6.18;;
48727;SDS011;34527;45.618;5.130;2023-04-24T05:46:33;5.47;;;3.08;;
48727;SDS011;34527;45.618;5.130;2023-04-24T05:48:59;3.78;;;1.98;;
48727;SDS011;34527;45.618;5.130;2023-04-24T05:51:25;7.93;;;2.05;;
48727;SDS011;34527;45.618;5.130;2023-04-24T05:53:51;8.65;;;1.90;;
48727;SDS011;34527;45.618;5.130;2023-04-24T05:56:16;4.53;;;1.60;;
48727;SDS011;34527;45.618;5.130;2023-04-24T05:58:42;13.13;;;2.15;;
48727;SDS011;34527;45.618;5.130;2023-04-24T06:01:08;4.32;;;1.70;;
48727;SDS011;34527;45.618;5.130;2023-04-24T06:03:34;4.68;;;2.70;;
48727;SDS011;34527;45.618;5.130;2023-04-24T06:06:00;4.03;;;2.47;;
48727;SDS011;34527;45.618;5.130;2023-04-24T06:08:25;3.55;;;2.25;;
48727;SDS011;34527;45.618;5.130;2023-04-24T06:10:51;6.43;;;4.20;;
48727;SDS011;34527;45.618;5.130;2023-04-24T06:13:17;6.28;;;3.63;;
48727;SDS011;34527;45.618;5.130;2023-04-24T06:15:43;6.40;;;4.40;;
48727;SDS011;34527;45.618;5.130;2023-04-24T06:18:08;4.22;;;2.72;;
48727;SDS011;34527;45.618;5.130;2023-04-24T06:20:35;6.72;;;2.58;;
48727;SDS011;34527;45.618;5.130;2023-04-24T06:23:01;8.18;;;3.95;;
48727;SDS011;34527;45.618;5.130;2023-04-24T06:25:27;8.73;;;4.50;;
48727;SDS011;34527;45.618;5.130;2023-04-24T06:27:53;4.82;;;3.67;;
48727;SDS011;34527;45.618;5.130;2023-04-24T06:30:19;5.35;;;3.00;;
48727;SDS011;34527;45.618;5.130;2023-04-24T06:32:45;3.40;;;1.85;;
48727;SDS011;34527;45.618;5.130;2023-04-24T06:35:11;3.88;;;1.90;;
48727;SDS011;34527;45.618;5.130;2023-04-24T06:37:38;4.43;;;2.20;;
48727;SDS011;34527;45.618;5.130;2023-04-24T06:40:05;3.70;;;1.67;;
48727;SDS011;34527;45.618;5.130;2023-04-24T06:42:31;6.40;;;2.17;;
48727;SDS011;34527;45.618;5.130;2023-04-24T06:44:56;3.92;;;2.05;;
48727;SDS011;34527;45.618;5.130;2023-04-24T06:47:22;3.30;;;1.80;;
48727;SDS011;34527;45.618;5.130;2023-04-24T06:49:48;4.43;;;2.08;;
48727;SDS011;34527;45.618;5.130;2023-04-24T06:52:15;3.33;;;1.98;;
48727;SDS011;34527;45.618;5.130;2023-04-24T06:54:41;5.25;;;2.40;;
48727;SDS011;34527;45.618;5.130;2023-04-24T06:57:07;4.50;;;2.20;;
48727;SDS011;34527;45.618;5.130;2023-04-24T06:59:33;3.50;;;2.05;;
48727;SDS011;34527;45.618;5.130;2023-04-24T07:01:59;3.15;;;2.13;;
48727;SDS011;34527;45.618;5.130;2023-04-24T07:04:25;4.97;;;2.40;;
48727;SDS011;34527;45.618;5.130;2023-04-24T07:06:51;5.03;;;2.65;;
48727;SDS011;34527;45.618;5.130;2023-04-24T07:09:19;4.20;;;2.60;;
48727;SDS011;34527;45.618;5.130;2023-04-24T07:11:45;5.78;;;2.15;;
48727;SDS011;34527;45.618;5.130;2023-04-24T07:14:11;5.47;;;2.78;;
48727;SDS011;34527;45.618;5.130;2023-04-24T07:16:37;5.25;;;2.58;;
48727;SDS011;34527;45.618;5.130;2023-04-24T07:19:03;4.88;;;2.50;;
48727;SDS011;34527;45.618;5.130;2023-04-24T07:21:28;3.60;;;2.70;;
48727;SDS011;34527;45.618;5.130;2023-04-24T07:23:56;4.22;;;2.80;;
48727;SDS011;34527;45.618;5.130;2023-04-24T07:26:21;3.65;;;2.65;;
48727;SDS011;34527;45.618;5.130;2023-04-24T07:28:47;3.35;;;2.60;;
48727;SDS011;34527;45.618;5.130;2023-04-24T07:31:12;4.07;;;2.60;;
48727;SDS011;34527;45.618;5.130;2023-04-24T07:33:38;4.25;;;2.25;;
48727;SDS011;34527;45.618;5.130;2023-04-24T07:36:04;3.63;;;2.03;;
48727;SDS011;34527;45.618;5.130;2023-04-24T07:38:30;5.32;;;2.33;;
48727;SDS011;34527;45.618;5.130;2023-04-24T07:40:56;3.30;;;2.58;;
48727;SDS011;34527;45.618;5.130;2023-04-24T07:43:21;2.75;;;2.10;;
48727;SDS011;34527;45.618;5.130;2023-04-24T07:45:48;4.85;;;2.35;;
48727;SDS011;34527;45.618;5.130;2023-04-24T07:48:17;4.47;;;2.63;;
48727;SDS011;34527;45.618;5.130;2023-04-24T07:50:43;3.90;;;2.08;;
48727;SDS011;34527;45.618;5.130;2023-04-24T07:53:09;5.03;;;2.38;;
48727;SDS011;34527;45.618;5.130;2023-04-24T07:55:35;3.92;;;2.30;;
48727;SDS011;34527;45.618;5.130;2023-04-24T07:58:00;4.78;;;2.72;;
48727;SDS011;34527;45.618;5.130;2023-04-24T08:00:26;5.50;;;2.50;;
48727;SDS011;34527;45.618;5.130;2023-04-24T08:02:52;3.38;;;2.08;;
48727;SDS011;34527;45.618;5.130;2023-04-24T08:05:17;3.38;;;2.17;;
48727;SDS011;34527;45.618;5.130;2023-04-24T08:07:43;5.28;;;2.78;;
48727;SDS011;34527;45.618;5.130;2023-04-24T08:10:11;5.05;;;2.60;;
48727;SDS011;34527;45.618;5.130;2023-04-24T08:12:36;4.57;;;2.35;;
48727;SDS011;34527;45.618;5.130;2023-04-24T08:15:03;6.85;;;2.30;;
48727;SDS011;34527;45.618;5.130;2023-04-24T08:17:29;3.17;;;2.28;;
48727;SDS011;34527;45.618;5.130;2023-04-24T08:19:55;2.72;;;2.30;;
48727;SDS011;34527;45.618;5.130;2023-04-24T08:22:26;3.65;;;2.33;;
48727;SDS011;34527;45.618;5.130;2023-04-24T08:24:54;7.80;;;2.40;;
48727;SDS011;34527;45.618;5.130;2023-04-24T08:27:21;7.15;;;2.50;;
48727;SDS011;34527;45.618;5.130;2023-04-24T08:29:48;4.05;;;1.98;;
48727;SDS011;34527;45.618;5.130;2023-04-24T08:32:13;5.10;;;2.65;;
48727;SDS011;34527;45.618;5.130;2023-04-24T08:34:39;2.72;;;2.33;;
48727;SDS011;34527;45.618;5.130;2023-04-24T08:37:05;2.55;;;2.30;;
48727;SDS011;34527;45.618;5.130;2023-04-24T08:39:30;3.70;;;2.53;;
48727;SDS011;34527;45.618;5.130;2023-04-24T08:41:56;3.85;;;2.10;;
48727;SDS011;34527;45.618;5.130;2023-04-24T08:44:22;4.05;;;2.25;;
48727;SDS011;34527;45.618;5.130;2023-04-24T08:46:48;6.57;;;2.20;;
48727;SDS011;34527;45.618;5.130;2023-04-24T08:49:14;3.70;;;1.90;;
48727;SDS011;34527;45.618;5.130;2023-04-24T08:51:43;5.35;;;2.42;;
48727;SDS011;34527;45.618;5.130;2023-04-24T08:54:11;5.53;;;2.30;;
48727;SDS011;34527;45.618;5.130;2023-04-24T08:56:37;4.18;;;2.92;;
48727;SDS011;34527;45.618;5.130;2023-04-24T08:59:05;4.18;;;2.00;;
48727;SDS011;34527;45.618;5.130;2023-04-24T09:01:32;3.72;;;2.20;;
48727;SDS011;34527;45.618;5.130;2023-04-24T09:04:00;3.30;;;1.98;;
48727;SDS011;34527;45.618;5.130;2023-04-24T09:06:30;3.10;;;1.80;;
48727;SDS011;34527;45.618;5.130;2023-04-24T09:08:57;8.85;;;2.55;;
48727;SDS011;34527;45.618;5.130;2023-04-24T09:11:26;3.97;;;2.50;;
48727;SDS011;34527;45.618;5.130;2023-04-24T09:13:53;3.95;;;2.10;;
48727;SDS011;34527;45.618;5.130;2023-04-24T09:16:20;5.97;;;1.85;;
48727;SDS011;34527;45.618;5.130;2023-04-24T09:18:48;4.72;;;2.60;;
48727;SDS011;34527;45.618;5.130;2023-04-24T09:21:13;4.63;;;2.03;;
48727;SDS011;34527;45.618;5.130;2023-04-24T09:23:39;3.03;;;2.03;;
48727;SDS011;34527;45.618;5.130;2023-04-24T09:26:05;6.57;;;2.85;;
48727;SDS011;34527;45.618;5.130;2023-04-24T09:28:36;4.72;;;2.20;;
48727;SDS011;34527;45.618;5.130;2023-04-24T09:33:40;2.88;;;1.80;;
48727;SDS011;34527;45.618;5.130;2023-04-24T09:36:29;3.03;;;2.00;;
48727;SDS011;34527;45.618;5.130;2023-04-24T09:39:01;3.35;;;2.40;;
48727;SDS011;34527;45.618;5.130;2023-04-24T09:41:29;4.25;;;2.10;;
48727;SDS011;34527;45.618;5.130;2023-04-24T09:43:55;4.85;;;2.38;;
48727;SDS011;34527;45.618;5.130;2023-04-24T09:46:28;5.93;;;2.33;;
48727;SDS011;34527;45.618;5.130;2023-04-24T09:48:56;3.05;;;2.17;;
48727;SDS011;34527;45.618;5.130;2023-04-24T09:51:34;4.28;;;2.00;;
48727;SDS011;34527;45.618;5.130;2023-04-24T09:54:01;3.92;;;2.30;;
48727;SDS011;34527;45.618;5.130;2023-04-24T09:56:29;5.90;;;2.38;;
48727;SDS011;34527;45.618;5.130;2023-04-24T09:59:05;5.70;;;2.25;;
48727;SDS011;34527;45.618;5.130;2023-04-24T10:01:31;4.13;;;2.05;;
48727;SDS011;34527;45.618;5.130;2023-04-24T10:03:58;4.65;;;2.13;;
48727;SDS011;34527;45.618;5.130;2023-04-24T10:06:29;2.80;;;1.98;;
48727;SDS011;34527;45.618;5.130;2023-04-24T10:08:57;3.35;;;2.17;;
48727;SDS011;34527;45.618;5.130;2023-04-24T10:11:25;3.22;;;2.20;;
48727;SDS011;34527;45.618;5.130;2023-04-24T10:13:52;2.78;;;2.10;;
48727;SDS011;34527;45.618;5.130;2023-04-24T10:16:18;4.22;;;2.15;;
48727;SDS011;34527;45.618;5.130;2023-04-24T10:18:46;3.33;;;2.15;;
48727;SDS011;34527;45.618;5.130;2023-04-24T10:21:14;6.43;;;2.40;;
48727;SDS011;34527;45.618;5.130;2023-04-24T10:23:40;5.03;;;2.05;;
48727;SDS011;34527;45.618;5.130;2023-04-24T10:26:07;5.60;;;2.22;;
48727;SDS011;34527;45.618;5.130;2023-04-24T10:28:42;5.53;;;1.73;;
48727;SDS011;34527;45.618;5.130;2023-04-24T10:31:12;5.93;;;2.38;;
48727;SDS011;34527;45.618;5.130;2023-04-24T10:33:38;2.72;;;2.25;;
48727;SDS011;34527;45.618;5.130;2023-04-24T10:36:07;2.22;;;1.92;;
48727;SDS011;34527;45.618;5.130;2023-04-24T10:38:35;3.03;;;1.88;;
48727;SDS011;34527;45.618;5.130;2023-04-24T10:41:09;4.95;;;2.13;;
48727;SDS011;34527;45.618;5.130;2023-04-24T10:43:41;4.68;;;2.10;;
48727;SDS011;34527;45.618;5.130;2023-04-24T10:46:08;4.88;;;2.20;;
48727;SDS011;34527;45.618;5.130;2023-04-24T10:48:35;3.42;;;2.17;;
48727;SDS011;34527;45.618;5.130;2023-04-24T10:51:10;6.10;;;2.30;;
48727;SDS011;34527;45.618;5.130;2023-04-24T10:53:37;5.15;;;2.20;;
48727;SDS011;34527;45.618;5.130;2023-04-24T10:56:06;4.50;;;2.40;;
48727;SDS011;34527;45.618;5.130;2023-04-24T11:01:11;3.30;;;2.20;;
48727;SDS011;34527;45.618;5.130;2023-04-24T11:03:55;4.68;;;2.35;;
48727;SDS011;34527;45.618;5.130;2023-04-24T11:06:29;4.65;;;2.35;;
48727;SDS011;34527;45.618;5.130;2023-04-24T11:09:03;4.00;;;2.40;;
48727;SDS011;34527;45.618;5.130;2023-04-24T11:11:34;4.50;;;2.27;;
48727;SDS011;34527;45.618;5.130;2023-04-24T11:14:02;3.88;;;2.22;;
48727;SDS011;34527;45.618;5.130;2023-04-24T11:16:42;5.05;;;2.15;;
48727;SDS011;34527;45.618;5.130;2023-04-24T11:19:17;3.42;;;2.42;;
48727;SDS011;34527;45.618;5.130;2023-04-24T11:21:55;3.77;;;2.37;;
48727;SDS011;34527;45.618;5.130;2023-04-24T11:27:13;2.78;;;1.98;;
48727;SDS011;34527;45.618;5.130;2023-04-24T11:35:00;2.35;;;1.95;;
48727;SDS011;34527;45.618;5.130;2023-04-24T11:37:33;6.75;;;2.47;;
48727;SDS011;34527;45.618;5.130;2023-04-24T11:40:01;3.20;;;1.67;;
48727;SDS011;34527;45.618;5.130;2023-04-24T11:42:28;5.35;;;2.30;;
48727;SDS011;34527;45.618;5.130;2023-04-24T11:45:13;4.40;;;2.05;;
48727;SDS011;34527;45.618;5.130;2023-04-24T11:47:43;5.25;;;1.80;;
48727;SDS011;34527;45.618;5.130;2023-04-24T11:50:11;3.85;;;1.85;;
48727;SDS011;34527;45.618;5.130;2023-04-24T11:52:39;5.10;;;1.92;;
48727;SDS011;34527;45.618;5.130;2023-04-24T11:55:27;6.05;;;2.10;;
48727;SDS011;34527;45.618;5.130;2023-04-24T11:57:53;3.58;;;1.90;;
48727;SDS011;34527;45.618;5.130;2023-04-24T12:00:30;2.80;;;1.90;;
48727;SDS011;34527;45.618;5.130;2023-04-24T12:03:09;3.78;;;1.95;;
48727;SDS011;34527;45.618;5.130;2023-04-24T12:05:36;4.65;;;2.13;;
48727;SDS011;34527;45.618;5.130;2023-04-24T12:08:02;4.82;;;1.77;;
48727;SDS011;34527;45.618;5.130;2023-04-24T12:10:29;4.43;;;1.67;;
48727;SDS011;34527;45.618;5.130;2023-04-24T12:12:56;4.45;;;1.70;;
48727;SDS011;34527;45.618;5.130;2023-04-24T12:15:23;3.42;;;1.90;;
48727;SDS011;34527;45.618;5.130;2023-04-24T12:17:52;2.03;;;1.60;;
48727;SDS011;34527;45.618;5.130;2023-04-24T12:20:23;2.85;;;1.80;;
48727;SDS011;34527;45.618;5.130;2023-04-24T12:22:55;3.38;;;1.80;;
48727;SDS011;34527;45.618;5.130;2023-04-24T12:25:22;2.63;;;2.08;;
48727;SDS011;34527;45.618;5.130;2023-04-24T12:27:53;3.05;;;1.70;;
48727;SDS011;34527;45.618;5.130;2023-04-24T12:30:20;3.78;;;1.67;;
48727;SDS011;34527;45.618;5.130;2023-04-24T12:32:51;3.25;;;1.63;;
48727;SDS011;34527;45.618;5.130;2023-04-24T12:35:20;4.47;;;1.70;;
48727;SDS011;34527;45.618;5.130;2023-04-24T12:37:47;2.95;;;1.80;;
48727;SDS011;34527;45.618;5.130;2023-04-24T12:40:13;6.78;;;1.80;;
48727;SDS011;34527;45.618;5.130;2023-04-24T12:42:58;4.05;;;1.90;;
48727;SDS011;34527;45.618;5.130;2023-04-24T12:45:23;2.40;;;1.80;;
48727;SDS011;34527;45.618;5.130;2023-04-24T12:47:50;3.97;;;1.75;;
48727;SDS011;34527;45.618;5.130;2023-04-24T12:50:15;1.73;;;1.60;;
48727;SDS011;34527;45.618;5.130;2023-04-24T12:52:42;2.35;;;1.80;;
48727;SDS011;34527;45.618;5.130;2023-04-24T12:55:08;2.00;;;1.73;;
48727;SDS011;34527;45.618;5.130;2023-04-24T12:57:35;3.67;;;1.77;;
48727;SDS011;34527;45.618;5.130;2023-04-24T13:00:02;2.97;;;1.92;;
48727;SDS011;34527;45.618;5.130;2023-04-24T13:02:29;3.88;;;1.70;;
48727;SDS011;34527;45.618;5.130;2023-04-24T13:04:56;5.28;;;1.77;;
48727;SDS011;34527;45.618;5.130;2023-04-24T13:07:23;4.55;;;1.70;;
48727;SDS011;34527;45.618;5.130;2023-04-24T13:09:50;4.90;;;1.90;;
48727;SDS011;34527;45.618;5.130;2023-04-24T13:12:16;3.58;;;1.98;;
48727;SDS011;34527;45.618;5.130;2023-04-24T13:14:42;4.47;;;1.80;;
48727;SDS011;34527;45.618;5.130;2023-04-24T13:17:07;3.60;;;1.77;;
48727;SDS011;34527;45.618;5.130;2023-04-24T13:19:37;4.90;;;2.00;;
48727;SDS011;34527;45.618;5.130;2023-04-24T13:22:04;3.45;;;1.70;;
48727;SDS011;34527;45.618;5.130;2023-04-24T13:24:30;2.85;;;1.80;;
48727;SDS011;34527;45.618;5.130;2023-04-24T13:26:56;3.75;;;1.73;;
48727;SDS011;34527;45.618;5.130;2023-04-24T13:29:22;4.25;;;1.83;;
48727;SDS011;34527;45.618;5.130;2023-04-24T13:31:50;3.70;;;1.90;;
48727;SDS011;34527;45.618;5.130;2023-04-24T13:34:16;3.35;;;1.88;;
48727;SDS011;34527;45.618;5.130;2023-04-24T13:36:42;5.10;;;1.77;;
48727;SDS011;34527;45.618;5.130;2023-04-24T13:39:08;2.92;;;1.90;;
48727;SDS011;34527;45.618;5.130;2023-04-24T13:41:35;4.50;;;2.00;;
48727;SDS011;34527;45.618;5.130;2023-04-24T13:44:01;7.43;;;2.30;;
48727;SDS011;34527;45.618;5.130;2023-04-24T13:46:28;5.22;;;2.10;;
48727;SDS011;34527;45.618;5.130;2023-04-24T13:48:53;3.60;;;1.85;;
48727;SDS011;34527;45.618;5.130;2023-04-24T13:51:19;3.28;;;1.70;;
48727;SDS011;34527;45.618;5.130;2023-04-24T13:53:45;3.00;;;2.10;;
48727;SDS011;34527;45.618;5.130;2023-04-24T13:56:10;2.95;;;1.95;;
48727;SDS011;34527;45.618;5.130;2023-04-24T13:58:37;2.92;;;1.75;;
48727;SDS011;34527;45.618;5.130;2023-04-24T14:01:03;6.45;;;2.30;;
48727;SDS011;34527;45.618;5.130;2023-04-24T14:03:29;4.10;;;2.13;;
48727;SDS011;34527;45.618;5.130;2023-04-24T14:05:54;2.88;;;2.00;;
48727;SDS011;34527;45.618;5.130;2023-04-24T14:08:20;2.92;;;1.75;;
48727;SDS011;34527;45.618;5.130;2023-04-24T14:10:46;4.20;;;1.95;;
48727;SDS011;34527;45.618;5.130;2023-04-24T14:13:11;4.55;;;2.10;;
48727;SDS011;34527;45.618;5.130;2023-04-24T14:15:37;6.70;;;2.55;;
48727;SDS011;34527;45.618;5.130;2023-04-24T14:18:03;5.18;;;1.98;;
48727;SDS011;34527;45.618;5.130;2023-04-24T14:20:29;4.38;;;2.17;;
48727;SDS011;34527;45.618;5.130;2023-04-24T14:22:55;3.60;;;2.10;;
48727;SDS011;34527;45.618;5.130;2023-04-24T14:25:23;2.60;;;1.80;;
48727;SDS011;34527;45.618;5.130;2023-04-24T14:27:50;4.07;;;1.92;;
48727;SDS011;34527;45.618;5.130;2023-04-24T14:30:15;3.55;;;1.73;;
48727;SDS011;34527;45.618;5.130;2023-04-24T14:32:41;3.65;;;1.83;;
48727;SDS011;34527;45.618;5.130;2023-04-24T14:35:07;3.63;;;1.95;;
48727;SDS011;34527;45.618;5.130;2023-04-24T14:37:33;3.75;;;1.98;;
48727;SDS011;34527;45.618;5.130;2023-04-24T14:39:58;4.70;;;1.83;;
48727;SDS011;34527;45.618;5.130;2023-04-24T14:42:24;3.08;;;2.03;;
48727;SDS011;34527;45.618;5.130;2023-04-24T14:44:50;2.35;;;1.80;;
48727;SDS011;34527;45.618;5.130;2023-04-24T14:47:16;4.70;;;2.08;;
48727;SDS011;34527;45.618;5.130;2023-04-24T14:49:46;3.78;;;1.83;;
48727;SDS011;34527;45.618;5.130;2023-04-24T14:52:12;2.55;;;1.88;;
48727;SDS011;34527;45.618;5.130;2023-04-24T14:54:38;2.33;;;1.70;;
48727;SDS011;34527;45.618;5.130;2023-04-24T14:57:04;4.10;;;1.77;;
48727;SDS011;34527;45.618;5.130;2023-04-24T14:59:30;2.42;;;1.70;;